Time;durP1;ratioP1;P1;durP2;ratioP2;P2;SDS_P1;SDS_P2;PMS_P1;PMS_P2;Temp;Humidity;BMP_temperature;BMP_pressure;BME280_temperature;BME280_humidity;BME280_pressure;Samples;Min_cycle;Max_cycle;Signal;HPM_P1;HPM_P2
2022/04/21 00:02:10;;;;;;;18.88;7.05;;;;;;;-146.64;95.32;39317.31;5031556;28;20026;-79
2022/04/21 00:04:35;;;;;;;16.77;7.55;;;;;;;-146.64;95.81;39276.38;5015571;28;20045;-78
2022/04/21 00:07:01;;;;;;;8.98;7.00;;;;;;;-146.64;95.71;39298.91;5032222;28;20029;-77
2022/04/21 00:09:27;;;;;;;7.93;6.70;;;;;;;-146.64;95.39;39296.84;5015267;28;20375;-78
2022/04/21 00:11:52;;;;;;;12.82;6.95;;;;;;;-146.64;95.40;39300.94;5015107;28;20363;-79
2022/04/21 00:14:19;;;;;;;11.88;7.20;;;;;;;-146.64;95.20;39239.56;5015436;28;20093;-78
2022/04/21 00:16:44;;;;;;;10.93;7.65;;;;;;;-146.64;95.22;39288.66;5031918;28;20034;-78
2022/04/21 00:19:09;;;;;;;12.50;6.93;;;;;;;-146.64;95.33;39270.25;5015121;28;20041;-78
2022/04/21 00:24:19;;;;;;;12.90;6.90;;;;;;;-146.64;95.84;39292.75;5017451;28;20044;-79
2022/04/21 00:26:44;;;;;;;12.13;7.03;;;;;;;-146.64;95.63;39288.66;5014531;28;20041;-79
2022/04/21 00:29:10;;;;;;;10.57;7.28;;;;;;;-146.64;96.38;39329.59;5015414;28;20042;-79
2022/04/21 00:31:36;;;;;;;18.23;8.93;;;;;;;-146.64;97.21;39315.28;5032187;28;20010;-81
2022/04/21 00:34:01;;;;;;;11.73;6.88;;;;;;;-146.64;96.40;39319.38;5014853;28;20048;-78
2022/04/21 00:36:27;;;;;;;16.60;7.03;;;;;;;-146.64;97.43;39321.41;5032330;28;20374;-78
2022/04/21 00:38:53;;;;;;;12.02;6.80;;;;;;;-146.64;97.95;39341.88;5018380;28;20227;-78
2022/04/21 00:41:19;;;;;;;10.55;6.78;;;;;;;-146.64;97.72;39358.25;5017467;28;20022;-78
2022/04/21 00:43:44;;;;;;;12.10;7.27;;;;;;;-146.64;98.77;39345.97;5033722;28;20062;-79
2022/04/21 00:46:19;;;;;;;13.65;7.07;;;;;;;-146.64;98.80;39341.88;5034433;28;20034;-79
2022/04/21 00:48:45;;;;;;;14.00;7.50;;;;;;;-146.64;100.00;39356.22;5017255;28;20050;-79
2022/04/21 00:51:12;;;;;;;15.23;8.00;;;;;;;-146.64;100.00;39333.69;5016894;28;20219;-80
2022/04/21 00:53:39;;;;;;;13.10;7.47;;;;;;;-146.64;100.00;39399.19;5017807;28;20283;-78
2022/04/21 00:56:05;;;;;;;10.77;7.93;;;;;;;-146.64;100.00;39374.63;5017160;28;20038;-77
2022/04/21 00:58:32;;;;;;;11.82;7.95;;;;;;;-146.64;100.00;39368.50;5017207;28;20102;-78
2022/04/21 01:00:58;;;;;;;8.93;6.87;;;;;;;-146.64;100.00;39364.41;5033808;28;20014;-77
2022/04/21 01:03:24;;;;;;;12.50;7.47;;;;;;;-146.64;100.00;39395.09;5017433;28;20044;-78
2022/04/21 01:05:49;;;;;;;13.35;7.20;;;;;;;-146.64;100.00;39403.28;5034566;28;20026;-78
2022/04/21 01:08:14;;;;;;;11.18;7.30;;;;;;;-146.64;100.00;39403.28;5034137;28;20017;-78
2022/04/21 01:10:42;;;;;;;10.88;7.78;;;;;;;-146.64;100.00;39448.31;5033498;28;20092;-80
2022/04/21 01:13:09;;;;;;;16.65;8.52;;;;;;;-146.64;100.00;39354.16;5016392;28;20053;-78
2022/04/21 01:15:36;;;;;;;11.85;7.25;;;;;;;-146.64;100.00;39407.38;5016902;28;20033;-78
2022/04/21 01:18:01;;;;;;;18.33;8.85;;;;;;;-146.64;100.00;39438.06;5017402;28;20089;-79
2022/04/21 01:20:27;;;;;;;14.20;8.32;;;;;;;-146.64;100.00;39470.81;5017393;28;20048;-78
2022/04/21 01:22:53;;;;;;;13.37;7.00;;;;;;;-146.64;100.00;39425.78;5032960;28;20048;-78
2022/04/21 01:25:20;;;;;;;12.77;7.70;;;;;;;-146.64;100.00;39489.25;5032531;28;20042;-78
2022/04/21 01:27:48;;;;;;;11.45;8.15;;;;;;;-146.64;100.00;39470.81;5001057;28;20034;-78
2022/04/21 01:30:14;;;;;;;12.45;7.90;;;;;;;-146.64;100.00;39472.88;5001092;28;20105;-78
2022/04/21 01:32:48;;;;;;;14.52;8.75;;;;;;;-146.64;100.00;39380.75;5033356;28;20033;-79
2022/04/21 01:35:14;;;;;;;12.00;7.93;;;;;;;-146.64;100.00;39481.06;5016892;28;20049;-77
2022/04/21 01:43:11;;;;;;;12.82;8.13;;;;;;;-146.64;100.00;39503.56;5034494;28;20109;-78
2022/04/21 01:45:37;;;;;;;10.85;8.63;;;;;;;-146.64;100.00;39517.91;5016002;28;20058;-79
2022/04/21 01:48:04;;;;;;;11.73;8.35;;;;;;;-146.64;100.00;39522.00;5015987;28;20026;-77
2022/04/21 01:50:29;;;;;;;11.73;8.45;;;;;;;-146.64;100.00;39558.81;4999355;28;20045;-77
2022/04/21 01:52:58;;;;;;;15.25;7.82;;;;;;;-146.64;100.00;39532.22;5015911;28;20030;-78
2022/04/21 01:55:25;;;;;;;17.23;8.43;;;;;;;-146.64;100.00;39530.16;5032770;28;20041;-77
2022/04/21 01:57:50;;;;;;;11.60;7.90;;;;;;;-146.64;100.00;39476.97;5032440;28;20459;-77
2022/04/21 02:00:16;;;;;;;15.65;8.60;;;;;;;-146.64;100.00;39558.81;4999632;28;20017;-78
2022/04/21 02:02:42;;;;;;;10.73;8.07;;;;;;;-146.64;100.00;39552.69;5005580;28;20038;-79
2022/04/21 02:05:08;;;;;;;14.90;9.32;;;;;;;-146.64;100.00;39571.09;4999078;28;20040;-79
2022/04/21 02:07:33;;;;;;;18.48;9.68;;;;;;;-146.64;100.00;39616.13;4998763;28;20548;-78
2022/04/21 02:09:59;;;;;;;15.77;8.90;;;;;;;-146.64;100.00;39579.28;4998523;28;20049;-79
2022/04/21 02:12:28;;;;;;;16.38;9.27;;;;;;;-146.64;100.00;39569.06;5015510;28;20053;-77
2022/04/21 02:14:55;;;;;;;10.15;8.00;;;;;;;-146.64;100.00;39544.50;5015043;28;20100;-78
2022/04/21 02:17:20;;;;;;;10.50;8.02;;;;;;;-146.64;100.00;39581.34;5015735;28;20095;-78
2022/04/21 02:19:46;;;;;;;12.50;8.07;;;;;;;-146.64;100.00;39583.38;4997535;28;20097;-80
2022/04/21 02:22:12;;;;;;;12.82;8.25;;;;;;;-146.64;100.00;39567.00;5015316;28;20103;-79
2022/04/21 02:24:37;;;;;;;12.70;7.65;;;;;;;-146.64;100.00;39612.03;4998634;28;20041;-79
2022/04/21 02:27:03;;;;;;;13.20;8.15;;;;;;;-146.64;100.00;39587.47;5016528;28;20032;-78
2022/04/21 02:29:28;;;;;;;14.13;7.65;;;;;;;-146.64;100.00;39587.47;4998786;28;20029;-78
2022/04/21 02:31:54;;;;;;;13.25;8.73;;;;;;;-146.64;100.00;39624.31;5016413;28;20034;-79
2022/04/21 02:34:19;;;;;;;12.93;8.18;;;;;;;-146.64;100.00;39648.88;5014780;28;20032;-77
2022/04/21 02:36:44;;;;;;;10.30;8.05;;;;;;;-146.64;100.00;39655.03;5014889;28;20030;-78
2022/04/21 02:39:10;;;;;;;13.30;8.05;;;;;;;-146.64;100.00;39644.78;5014740;28;20469;-79
2022/04/21 02:41:35;;;;;;;12.18;9.23;;;;;;;-146.64;100.00;39652.97;4998301;28;20369;-79
2022/04/21 02:44:01;;;;;;;10.93;8.48;;;;;;;-146.64;100.00;39675.50;4997493;28;20053;-80
2022/04/21 02:46:33;;;;;;;13.18;7.85;;;;;;;-146.64;100.00;39695.97;5014435;28;20030;-80
2022/04/21 02:49:00;;;;;;;11.63;8.25;;;;;;;-146.64;100.00;39720.53;5014867;28;20030;-80
2022/04/21 02:51:25;;;;;;;17.02;8.52;;;;;;;-146.64;100.00;39736.91;4998638;28;20030;-79
2022/04/21 02:59:20;;;;;;;16.83;8.48;;;;;;;-146.64;100.00;39800.34;5000520;28;20065;-80
2022/04/21 03:01:45;;;;;;;12.37;8.60;;;;;;;-146.64;100.00;39829.00;4997777;28;20030;-80
2022/04/21 03:04:10;;;;;;;12.68;8.27;;;;;;;-146.64;100.00;39763.50;4999584;28;20129;-79
2022/04/21 03:06:36;;;;;;;12.30;8.65;;;;;;;-146.64;100.00;39872.00;5016047;28;20412;-80
2022/04/21 03:09:01;;;;;;;14.70;9.15;;;;;;;-146.64;100.00;39865.84;5015514;28;20053;-80
2022/04/21 03:11:26;;;;;;;14.00;8.77;;;;;;;-146.64;100.00;39890.41;5015929;28;20030;-81
2022/04/21 03:13:52;;;;;;;14.77;9.48;;;;;;;-146.64;100.00;39923.16;4998196;28;20128;-80
2022/04/21 03:16:18;;;;;;;13.27;8.98;;;;;;;-146.64;100.00;39865.84;5016923;28;20437;-79
2022/04/21 03:18:43;;;;;;;12.10;8.85;;;;;;;-146.64;100.00;39886.31;4998491;28;20134;-80
2022/04/21 03:26:38;;;;;;;17.35;8.43;;;;;;;-146.64;100.00;39955.91;5015550;28;20157;-80
2022/04/21 03:29:04;;;;;;;16.60;8.73;;;;;;;-146.64;100.00;40056.22;5015457;28;20042;-81
2022/04/21 03:31:29;;;;;;;13.80;9.30;;;;;;;-146.64;100.00;40054.16;4981972;28;20109;-80
2022/04/21 03:33:55;;;;;;;17.92;9.85;;;;;;;-146.64;100.00;40084.88;5014594;28;20404;-81
2022/04/21 03:36:21;;;;;;;12.18;7.93;;;;;;;-146.64;100.00;40156.50;4982200;28;20093;-79
2022/04/21 03:38:46;;;;;;;12.88;9.00;;;;;;;-146.64;100.00;40205.66;4982487;28;20056;-80
2022/04/21 03:41:12;;;;;;;13.98;8.85;;;;;;;-146.64;100.00;40181.09;4998616;28;20063;-79
2022/04/21 03:43:38;;;;;;;14.80;8.98;;;;;;;-146.64;100.00;40234.31;4998609;28;20030;-79
2022/04/21 03:46:03;;;;;;;14.35;8.88;;;;;;;-146.64;100.00;40295.72;4998228;28;20041;-79
2022/04/21 03:48:29;;;;;;;12.55;8.65;;;;;;;-146.64;100.00;40447.22;4998770;28;20018;-80
2022/04/21 03:50:55;;;;;;;13.52;9.23;;;;;;;-146.64;100.00;40705.16;4982114;28;20045;-80
2022/04/21 03:53:21;;;;;;;13.98;9.43;;;;;;;-146.64;100.00;40676.50;4998503;28;20033;-80
2022/04/21 03:55:46;;;;;;;11.48;9.02;;;;;;;-146.64;100.00;40496.34;4998254;28;20466;-79
2022/04/21 03:58:11;;;;;;;12.13;8.88;;;;;;;-146.64;100.00;40484.06;5016213;28;20030;-80
2022/04/21 04:00:37;;;;;;;13.15;8.25;;;;;;;-146.64;100.00;40623.28;4981379;28;20038;-79
2022/04/21 04:03:02;;;;;;;14.40;8.88;;;;;;;-146.64;100.00;40434.91;4981752;28;20048;-80
2022/04/21 04:05:30;;;;;;;15.90;9.47;;;;;;;-146.64;100.00;40570.03;5015955;28;20057;-80
2022/04/21 04:10:52;;;;;;;12.80;9.13;;;;;;;-146.64;100.00;40905.81;5014428;28;19924;-80
2022/04/21 04:13:24;;;;;;;12.63;8.55;;;;;;;-146.64;100.00;41040.94;5019854;28;20093;-78
2022/04/21 04:15:51;;;;;;;16.92;10.07;;;;;;;-146.64;100.00;40850.53;5001599;28;20038;-80
2022/04/21 04:18:17;;;;;;;;;;;;;;;-146.64;100.00;41247.75;5002249;28;20034;-81
2022/04/21 04:20:43;;;;;;;12.07;8.77;;;;;;;-146.64;100.00;41026.59;5017483;28;19963;-80
2022/04/21 04:23:08;;;;;;;16.90;8.55;;;;;;;-146.64;100.00;41479.13;5001104;28;20104;-80
2022/04/21 04:25:35;;;;;;;14.73;8.75;;;;;;;-146.64;100.00;41528.28;5017465;28;20441;-80
2022/04/21 04:28:00;;;;;;;13.20;9.00;;;;;;;-146.64;100.00;41692.09;5001541;28;20045;-79
2022/04/21 04:30:26;;;;;;;13.50;8.82;;;;;;;-146.64;100.00;42333.13;5018303;28;20038;-81
2022/04/21 04:32:52;;;;;;;15.18;9.02;;;;;;;-146.64;100.00;41700.28;5000874;28;20034;-80
2022/04/21 04:35:18;;;;;;;17.75;10.00;;;;;;;-146.64;100.00;41481.16;5017780;28;20143;-80
2022/04/21 04:37:43;;;;;;;16.08;8.77;;;;;;;-146.64;100.00;41522.13;5017365;28;20030;-80
2022/04/21 04:40:10;;;;;;;15.55;8.82;;;;;;;-146.64;100.00;41016.38;5018610;28;20042;-81
2022/04/21 04:42:36;;;;;;;17.33;9.18;;;;;;;-146.64;100.00;40600.75;5017765;28;20032;-81
2022/04/21 04:47:47;;;;;;;17.23;8.43;;;;;;;-146.64;100.00;40541.38;5017985;28;20504;-80
2022/04/21 04:50:15;;;;;;;16.60;9.18;;;;;;;-146.64;100.00;40525.00;4984732;28;20033;-80
2022/04/21 04:52:42;;;;;;;14.73;9.18;;;;;;;-146.64;100.00;40455.41;5019226;28;20045;-80
2022/04/21 04:55:09;;;;;;;18.35;8.80;;;;;;;-146.64;100.00;40209.75;4985382;28;20473;-81
2022/04/21 04:57:35;;;;;;;12.27;8.65;;;;;;;-146.64;100.00;40062.34;5000963;28;20042;-81
2022/04/21 05:00:02;;;;;;;15.27;10.07;;;;;;;-146.64;100.00;39900.66;4996164;28;20504;-81
2022/04/21 05:02:28;;;;;;;15.48;8.18;;;;;;;-146.64;100.00;39833.09;4995784;28;20033;-81
2022/04/21 05:04:53;;;;;;;11.48;7.63;;;;;;;-146.64;100.00;39677.53;5012622;28;20495;-81
2022/04/21 05:07:19;;;;;;;11.32;8.10;;;;;;;-146.64;100.00;39558.81;4996220;28;20066;-79
2022/04/21 05:09:44;;;;;;;15.82;8.48;;;;;;;-146.64;100.00;39493.34;5013183;28;20030;-80
2022/04/21 05:12:10;;;;;;;19.88;8.48;;;;;;;-146.64;100.00;39419.66;5012587;28;20342;-80
2022/04/21 05:14:36;;;;;;;15.07;9.07;;;;;;;-146.64;100.00;39341.88;4995272;28;20029;-80
2022/04/21 05:17:01;;;;;;;14.63;8.02;;;;;;;-146.64;100.00;39300.94;5012076;28;20109;-81
2022/04/21 05:19:27;;;;;;;11.88;8.20;;;;;;;-146.64;100.00;39290.72;4995552;28;20073;-80
2022/04/21 05:21:52;;;;;;;12.23;7.90;;;;;;;-146.64;100.00;39272.28;4995551;28;20030;-80
2022/04/21 05:24:19;;;;;;;11.13;7.60;;;;;;;-146.64;100.00;39243.66;5013410;28;20140;-80
2022/04/21 05:26:45;;;;;;;13.90;8.38;;;;;;;-146.64;100.00;39255.94;4995180;28;20052;-80
2022/04/21 05:32:54;;;;;;;11.25;8.30;;;;;;;-146.64;100.00;39206.81;5011941;28;20072;-80
2022/04/21 05:35:19;;;;;;;11.50;8.57;;;;;;;-146.64;100.00;39190.44;5012663;28;20450;-81
2022/04/21 05:37:45;;;;;;;12.88;7.13;;;;;;;-146.64;100.00;39184.28;5011691;28;20103;-81
2022/04/21 05:40:11;;;;;;;15.45;7.57;;;;;;;-146.64;100.00;39157.69;4979195;28;20295;-81
2022/04/21 05:42:42;;;;;;;10.43;7.55;;;;;;;-146.64;100.00;39184.28;5011909;28;20334;-80
2022/04/21 05:45:08;;;;;;;14.38;7.55;;;;;;;-146.64;100.00;39145.41;4995661;28;20034;-81
2022/04/21 05:47:34;;;;;;;11.40;8.02;;;;;;;-146.64;100.00;39161.78;4994889;28;20066;-81
2022/04/21 05:50:00;;;;;;;15.85;7.75;;;;;;;-146.64;100.00;39169.97;4979032;28;20184;-81
2022/04/21 05:52:28;;;;;;;9.65;7.78;;;;;;;-146.64;100.00;39147.47;5012772;28;20034;-78
2022/04/21 05:54:54;;;;;;;14.23;7.55;;;;;;;-146.64;100.00;39137.22;4978103;28;20829;-81
2022/04/21 05:57:19;;;;;;;15.52;8.70;;;;;;;-146.64;100.00;39133.13;4995477;28;20066;-81
2022/04/21 05:59:45;;;;;;;13.88;7.43;;;;;;;-146.64;100.00;39151.56;4994664;28;20030;-81
2022/04/21 06:02:10;;;;;;;12.32;7.20;;;;;;;-146.64;100.00;39149.50;4994638;28;20034;-82
2022/04/21 06:04:36;;;;;;;12.50;7.88;;;;;;;-146.64;100.00;39120.84;4978706;28;20042;-81
2022/04/21 06:07:01;;;;;;;9.57;7.10;;;;;;;-146.64;100.00;39112.66;5011592;28;20030;-79
2022/04/21 06:09:26;;;;;;;11.13;7.38;;;;;;;-146.64;100.00;39090.16;4995290;28;20030;-79
2022/04/21 06:11:52;;;;;;;14.43;7.63;;;;;;;-146.64;100.00;39092.19;5011513;28;20030;-80
2022/04/21 06:14:17;;;;;;;14.17;7.13;;;;;;;-146.64;100.00;38985.78;4995260;28;20038;-80
2022/04/21 06:16:42;;;;;;;10.73;7.38;;;;;;;-146.64;100.00;39084.00;4995348;28;20030;-80
2022/04/21 06:19:08;;;;;;;11.52;8.23;;;;;;;-146.64;100.00;39092.19;5011625;28;20034;-79
2022/04/21 06:21:34;;;;;;;15.27;7.45;;;;;;;-146.64;100.00;39104.47;5011403;28;20030;-80
2022/04/21 06:24:00;;;;;;;12.10;6.65;;;;;;;-146.64;100.00;39055.38;5011117;28;20057;-80
2022/04/21 06:26:25;;;;;;;10.38;6.78;;;;;;;-146.64;100.00;39067.66;5003854;28;20041;-79
2022/04/21 06:28:57;;;;;;;8.48;6.85;;;;;;;-146.64;100.00;38991.94;4994162;28;20496;-79
2022/04/21 06:31:22;;;;;;;9.98;6.47;;;;;;;-146.64;100.00;39039.00;4995204;28;20026;-79
2022/04/21 06:33:47;;;;;;;10.90;6.73;;;;;;;-146.64;100.00;39010.34;4977324;28;20034;-79
2022/04/21 06:36:13;;;;;;;18.92;8.75;;;;;;;-146.64;100.00;38989.88;5013098;28;20034;-79
2022/04/21 06:38:38;;;;;;;13.47;7.87;;;;;;;-146.64;100.00;39018.53;4995156;28;20116;-81
2022/04/21 06:41:03;;;;;;;12.52;7.30;;;;;;;-146.64;100.00;38993.97;4978636;28;20390;-80
2022/04/21 06:48:57;;;;;;;12.38;7.32;;;;;;;-146.64;100.00;38844.59;5011201;28;20448;-80
2022/04/21 06:51:24;;;;;;;16.53;7.97;;;;;;;-146.64;100.00;38793.44;4994789;28;20021;-80
2022/04/21 06:53:49;;;;;;;;;;;;;;;-146.64;97.68;38738.19;5011079;28;20128;-83
2022/04/21 06:56:15;;;;;;;15.55;7.53;;;;;;;-146.64;93.02;38650.19;5011160;28;19964;-81
2022/04/21 06:58:40;;;;;;;12.40;6.60;;;;;;;-146.64;90.11;38666.56;5011059;28;20455;-81
2022/04/21 07:01:06;;;;;;;11.00;6.87;;;;;;;-146.64;88.36;38629.72;4995129;28;20030;-81
2022/04/21 07:03:33;;;;;;;10.67;6.97;;;;;;;-146.64;86.07;38527.41;4994888;28;20034;-81
2022/04/21 07:06:00;;;;;;;10.23;6.78;;;;;;;-146.64;86.26;38560.16;5010944;28;20472;-81
2022/04/21 07:08:26;;;;;;;13.48;6.80;;;;;;;-146.64;84.71;38490.59;4994149;28;20145;-81
2022/04/21 07:10:51;;;;;;;8.83;7.47;;;;;;;-146.64;83.98;38537.66;4993656;28;20121;-80
2022/04/21 07:13:16;;;;;;;12.93;8.17;;;;;;;-146.64;84.25;38496.72;4994237;28;20032;-81
2022/04/21 07:15:42;;;;;;;13.60;6.60;;;;;;;-146.64;82.77;38408.75;5010279;28;20083;-81
2022/04/21 07:18:09;;;;;;;16.57;6.73;;;;;;;-146.64;77.55;38425.09;4994413;28;20034;-81
2022/04/21 07:20:34;;;;;;;14.32;6.63;;;;;;;-146.64;79.17;38457.84;5010275;28;20096;-81
2022/04/21 07:23:00;;;;;;;20.80;7.50;;;;;;;-146.64;78.07;38408.75;5010743;28;20478;-81
2022/04/21 07:25:25;;;;;;;9.00;6.23;;;;;;;-146.64;78.41;38466.03;4994356;28;20038;-81
2022/04/21 07:27:53;;;;;;;11.33;6.63;;;;;;;-146.64;75.77;38437.38;5011976;28;20026;-81
2022/04/21 07:30:19;;;;;;;12.27;6.72;;;;;;;-146.64;74.91;38406.69;4994088;28;20033;-81
2022/04/21 07:32:45;;;;;;;14.63;6.33;;;;;;;-146.64;75.20;38482.41;5011836;28;20026;-81
2022/04/21 07:35:10;;;;;;;9.03;6.43;;;;;;;-146.64;76.51;38433.28;4978087;28;20489;-81
2022/04/21 07:37:37;;;;;;;9.53;5.70;;;;;;;-146.64;75.75;38412.81;5010437;28;20465;-81
2022/04/21 07:40:03;;;;;;;;;;;;;;;-146.64;74.22;38515.13;4994383;28;20045;-81
2022/04/21 07:42:29;;;;;;;16.75;7.35;;;;;;;-146.64;75.24;38488.53;5010437;28;19921;-81
2022/04/21 07:44:57;;;;;;;8.80;6.00;;;;;;;-146.64;77.37;38478.31;4992877;28;20022;-81
2022/04/21 07:47:22;;;;;;;10.20;6.30;;;;;;;-146.64;76.00;38445.56;4994095;28;20149;-81
2022/04/21 07:49:48;;;;;;;8.93;5.80;;;;;;;-146.64;77.32;38535.59;4993846;28;20066;-81
2022/04/21 07:55:17;;;;;;;8.45;6.32;;;;;;;-146.64;79.85;38574.47;5010327;28;20041;-81
2022/04/21 07:57:43;;;;;;;7.15;5.45;;;;;;;-146.64;78.94;38547.88;4977497;28;20389;-80
2022/04/21 08:00:09;;;;;;;16.27;6.15;;;;;;;-146.64;78.13;38537.66;4994373;28;20025;-81
2022/04/21 08:02:37;;;;;;;10.02;5.88;;;;;;;-146.64;76.72;38551.97;4993971;28;20026;-80
2022/04/21 08:05:02;;;;;;;7.25;5.78;;;;;;;-146.64;77.66;38535.59;4993811;28;20501;-81
2022/04/21 08:07:27;;;;;;;9.97;5.80;;;;;;;-146.64;76.43;38515.13;4977557;28;20117;-81
2022/04/21 08:09:53;;;;;;;8.77;5.57;;;;;;;-146.64;77.89;38511.03;4977715;28;20036;-81
2022/04/21 08:12:18;;;;;;;9.33;5.60;;;;;;;-146.64;77.55;38617.44;5011640;28;20022;-81
2022/04/21 08:14:44;;;;;;;17.90;6.03;;;;;;;-146.64;80.54;38613.34;4993458;28;20030;-81
2022/04/21 08:17:12;;;;;;;12.93;6.07;;;;;;;-146.64;81.11;38572.44;5010127;28;20030;-80
2022/04/21 08:19:37;;;;;;;9.15;5.20;;;;;;;-146.64;80.15;38590.84;5011268;28;20054;-81
2022/04/21 08:22:03;;;;;;;19.80;6.03;;;;;;;-146.64;80.17;38523.31;5010091;28;20147;-81
2022/04/21 08:32:44;;;;;;;12.93;5.82;;;;;;;-146.64;78.78;38502.84;5011389;28;20061;-81
2022/04/21 08:35:13;;;;;;;12.10;6.03;;;;;;;-146.64;80.28;38392.38;4994297;28;20508;-81
2022/04/21 08:37:42;;;;;;;16.35;5.40;;;;;;;-146.64;80.79;38429.19;4977501;28;20026;-81
2022/04/21 08:40:08;;;;;;;7.68;5.57;;;;;;;-146.64;80.48;38519.22;5010720;28;20071;-80
2022/04/21 08:42:37;;;;;;;10.10;5.80;;;;;;;-146.64;80.65;38490.59;4993139;28;20030;-81
2022/04/21 08:45:03;;;;;;;6.80;5.53;;;;;;;-146.64;80.16;38457.84;4993165;28;20065;-82
2022/04/21 08:47:29;;;;;;;8.90;6.17;;;;;;;-146.64;77.20;38457.84;5011516;28;20377;-81
2022/04/21 08:50:13;;;;;;;10.63;5.25;;;;;;;-146.64;77.39;38392.38;4993715;28;20033;-81
2022/04/21 08:52:42;;;;;;;11.73;5.60;;;;;;;-146.64;76.29;38380.09;4994092;28;20034;-81
2022/04/21 08:55:09;;;;;;;8.05;5.30;;;;;;;-146.64;73.06;38421.00;4993240;28;20456;-81
2022/04/21 08:57:35;;;;;;;;;;;;;;;-146.64;70.98;38486.50;4995057;28;20180;-81
2022/04/21 09:00:02;;;;;;;7.32;4.50;;;;;;;-146.64;70.37;38404.66;4996653;28;19917;-81
2022/04/21 09:02:40;;;;;;;7.47;5.00;;;;;;;-146.64;68.49;38408.75;5013046;28;20378;-81
2022/04/21 09:05:06;;;;;;;9.65;4.90;;;;;;;-146.64;66.70;38359.63;4997194;28;20033;-81
2022/04/21 09:07:32;;;;;;;9.45;4.60;;;;;;;-146.64;67.33;38367.81;4980622;28;20120;-81
2022/04/21 09:10:11;;;;;;;8.60;4.53;;;;;;;-146.64;69.62;38257.31;5014161;28;20461;-82
2022/04/21 09:12:43;;;;;;;7.10;4.70;;;;;;;-146.64;69.52;38343.25;5013079;28;20030;-81
2022/04/21 09:15:14;;;;;;;10.30;4.40;;;;;;;-146.64;70.99;38269.59;4980339;28;20040;-82
2022/04/21 09:18:10;;;;;;;9.30;5.07;;;;;;;-146.64;71.76;38269.59;5012393;28;20397;-81
2022/04/21 09:20:39;;;;;;;7.05;4.95;;;;;;;-146.64;71.20;38298.25;4988464;28;20044;-81
2022/04/21 09:23:10;;;;;;;8.48;5.15;;;;;;;-146.64;71.47;38261.41;4997817;28;20030;-81
2022/04/21 09:25:47;;;;;;;14.32;4.93;;;;;;;-146.64;70.12;38240.97;4979696;28;20505;-81
2022/04/21 09:28:27;;;;;;;7.95;4.65;;;;;;;-146.64;68.73;38259.38;4996378;28;20553;-82
2022/04/21 09:30:55;;;;;;;9.13;4.28;;;;;;;-146.64;67.85;38163.22;4995675;28;20374;-82
2022/04/21 09:33:28;;;;;;;6.63;4.82;;;;;;;-146.64;68.08;38208.22;4979880;28;20029;-81
2022/04/21 09:35:58;;;;;;;12.10;4.07;;;;;;;-146.64;67.00;38195.94;4979324;28;20030;-81
2022/04/21 09:38:24;;;;;;;10.02;4.45;;;;;;;-146.64;66.81;38142.75;4996194;28;20033;-82
2022/04/21 09:40:49;;;;;;;5.45;4.38;;;;;;;-146.64;67.40;38101.81;4996143;28;20037;-81
2022/04/21 09:43:26;;;;;;;8.60;5.40;;;;;;;-146.64;67.81;38146.84;5013042;28;20088;-81
2022/04/21 09:46:10;;;;;;;12.45;4.55;;;;;;;-146.64;68.35;38187.75;4995916;28;20100;-82
2022/04/21 09:48:36;;;;;;;7.72;4.65;;;;;;;-146.64;65.44;38138.66;5012556;28;20065;-81
2022/04/21 09:51:12;;;;;;;7.53;4.55;;;;;;;-146.64;64.23;38146.84;4995560;28;20596;-82
2022/04/21 09:53:47;;;;;;;9.77;4.85;;;;;;;-146.64;62.98;38144.78;4979614;28;20044;-81
2022/04/21 09:56:12;;;;;;;7.25;4.43;;;;;;;-146.64;63.22;38175.47;4995916;28;20132;-82
2022/04/21 09:58:38;;;;;;;8.67;4.90;;;;;;;-146.64;62.16;38118.19;4979558;28;20413;-80
2022/04/21 10:01:04;;;;;;;6.68;4.75;;;;;;;-146.64;61.79;38126.38;4979301;28;20075;-82
2022/04/21 10:03:33;;;;;;;6.63;4.40;;;;;;;-146.64;63.47;38069.09;5012261;28;20453;-82
2022/04/21 10:05:59;;;;;;;7.70;4.47;;;;;;;-146.64;60.55;38046.59;5012611;28;20202;-81
2022/04/21 10:08:24;;;;;;;8.70;4.07;;;;;;;-146.64;59.56;38015.91;4994789;28;20396;-81
2022/04/21 10:10:51;;;;;;;6.30;4.00;;;;;;;-146.64;58.33;38022.03;5011395;28;20026;-81
2022/04/21 10:13:17;;;;;;;6.75;4.22;;;;;;;-146.64;58.42;38044.53;4995673;28;20037;-82
2022/04/21 10:15:43;;;;;;;9.03;3.80;;;;;;;-146.64;57.07;38032.25;4996224;28;20026;-81
2022/04/21 10:18:12;;;;;;;4.53;4.00;;;;;;;-146.64;56.67;37968.84;4995440;28;20079;-81
2022/04/21 10:20:39;;;;;;;4.65;3.40;;;;;;;-146.64;55.35;37991.34;5011858;28;20324;-82
2022/04/21 10:23:10;;;;;;;7.32;4.25;;;;;;;-146.64;56.16;38044.53;4995171;28;20030;-82
2022/04/21 10:25:37;;;;;;;6.95;3.90;;;;;;;-146.64;55.37;38032.25;4980138;28;20034;-81
2022/04/21 10:28:38;;;;;;;9.98;3.97;;;;;;;-146.64;53.46;37987.25;4995033;28;20129;-81
2022/04/21 10:31:35;;;;;;;7.13;3.83;;;;;;;-146.64;53.95;38007.72;4978915;28;20030;-81
2022/04/21 10:34:04;;;;;;;7.10;4.55;;;;;;;-146.64;53.01;37972.94;5012637;28;20426;-82
2022/04/21 10:36:47;;;;;;;10.57;3.45;;;;;;;-146.64;52.30;38085.47;5011647;28;20041;-82
2022/04/21 10:39:18;;;;;;;5.05;3.40;;;;;;;-146.64;49.34;37983.16;4979305;28;20080;-81
2022/04/21 10:41:44;;;;;;;4.38;3.63;;;;;;;-146.64;48.27;38001.56;5012427;28;20108;-81
2022/04/21 10:44:25;;;;;;;6.47;3.42;;;;;;;-146.64;48.59;37960.66;4978984;28;20037;-81
2022/04/21 10:47:29;;;;;;;6.38;3.47;;;;;;;-146.64;49.01;37983.16;4978780;28;20251;-82
2022/04/21 10:49:59;;;;;;;9.32;3.88;;;;;;;-146.64;48.88;37852.22;4994676;28;20029;-81
2022/04/21 10:58:33;;;;;;;4.93;4.10;;;;;;;-146.64;49.07;38028.19;5011401;28;20045;-81
2022/04/21 11:01:10;;;;;;;10.20;4.03;;;;;;;-146.64;50.05;38060.91;5012377;28;20100;-82
2022/04/21 11:03:38;;;;;;;7.53;4.53;;;;;;;-146.64;49.59;38089.56;4994704;28;20512;-81
2022/04/21 11:06:36;;;;;;;8.65;4.28;;;;;;;-146.64;48.58;37972.94;4995295;28;20037;-81
2022/04/21 11:09:02;;;;;;;6.95;4.13;;;;;;;-146.64;47.52;38024.09;4994342;28;20555;-81
2022/04/21 11:11:46;;;;;;;7.87;3.80;;;;;;;-146.64;46.62;38015.91;4994847;28;20021;-81
2022/04/21 11:14:27;;;;;;;5.10;3.50;;;;;;;-146.64;47.72;37872.69;4994730;28;20370;-81
2022/04/21 11:16:52;;;;;;;6.88;2.97;;;;;;;-146.64;44.23;37901.31;5010508;28;20029;-81
2022/04/21 11:20:06;;;;;;;5.40;3.23;;;;;;;-146.64;42.24;37991.34;4978280;28;20065;-81
2022/04/21 11:22:36;;;;;;;4.75;3.30;;;;;;;-146.64;41.89;37966.78;4958233;28;20124;-81
2022/04/21 11:25:04;;;;;;;3.45;2.90;;;;;;;-146.64;42.48;37878.81;4994515;28;20049;-81
2022/04/21 11:27:31;;;;;;;6.38;3.05;;;;;;;-146.64;42.95;37884.97;4977682;28;20129;-81
2022/04/21 11:30:08;;;;;;;5.95;2.90;;;;;;;-146.64;41.01;37844.03;4994178;28;20034;-81
2022/04/21 11:32:33;;;;;;;3.00;2.67;;;;;;;-146.64;40.68;37811.31;4994257;28;20096;-81
2022/04/21 11:35:01;;;;;;;3.57;2.50;;;;;;;-146.64;40.60;37860.41;4994042;28;20033;-81
2022/04/21 11:37:46;;;;;;;6.80;2.50;;;;;;;-146.64;39.82;37803.13;4978063;28;20033;-81
2022/04/21 11:40:22;;;;;;;2.65;2.38;;;;;;;-146.64;40.16;37790.84;5010954;28;20061;-80
2022/04/21 11:42:51;;;;;;;5.23;2.63;;;;;;;-146.64;39.09;37780.63;4977534;28;20384;-81
2022/04/21 11:45:27;;;;;;;6.32;2.80;;;;;;;-146.64;39.58;37784.72;4978110;28;20279;-80
2022/04/21 11:47:53;;;;;;;5.35;2.28;;;;;;;-146.64;38.21;37709.03;4993953;28;20382;-81
2022/04/21 11:50:26;;;;;;;5.37;2.20;;;;;;;-146.64;38.84;37655.84;4978152;28;20041;-81
2022/04/21 11:52:52;;;;;;;3.58;1.92;;;;;;;-146.64;38.43;37688.56;4994218;28;20041;-81
2022/04/21 11:55:19;;;;;;;4.97;1.90;;;;;;;-146.64;38.34;37741.75;4993990;28;20026;-82
2022/04/21 11:57:44;;;;;;;;;;;;;;;-146.64;37.34;37635.38;5010884;28;20030;-81
2022/04/21 12:00:11;;;;;;;7.65;1.85;;;;;;;-146.64;37.23;37557.63;5010170;28;20031;-80
2022/04/21 12:08:08;;;;;;;11.50;1.77;;;;;;;-146.64;35.22;37555.59;4996971;28;20184;-81
2022/04/21 12:10:34;;;;;;;6.47;2.20;;;;;;;-146.64;35.80;37655.84;4993812;28;20115;-81